sensor_id;sensor_type;location;lat;lon;timestamp;P1;durP1;ratioP1;P2;durP2;ratioP2
6288;SDS011;3177;49.880;8.836;2022-09-20T00:02:21;5.57;;;2.67;;
6288;SDS011;3177;49.880;8.836;2022-09-20T00:04:48;3.13;;;2.47;;
6288;SDS011;3177;49.880;8.836;2022-09-20T00:07:15;6.17;;;2.60;;
6288;SDS011;3177;49.880;8.836;2022-09-20T00:09:42;7.67;;;2.53;;
6288;SDS011;3177;49.880;8.836;2022-09-20T00:12:09;5.60;;;2.20;;
6288;SDS011;3177;49.880;8.836;2022-09-20T00:14:36;4.30;;;2.50;;
6288;SDS011;3177;49.880;8.836;2022-09-20T00:17:03;2.90;;;2.53;;
6288;SDS011;3177;49.880;8.836;2022-09-20T00:19:32;7.87;;;2.80;;
6288;SDS011;3177;49.880;8.836;2022-09-20T00:21:59;3.20;;;2.33;;
6288;SDS011;3177;49.880;8.836;2022-09-20T00:24:26;5.83;;;2.50;;
6288;SDS011;3177;49.880;8.836;2022-09-20T00:26:53;9.00;;;2.50;;
6288;SDS011;3177;49.880;8.836;2022-09-20T00:29:20;6.63;;;2.90;;
6288;SDS011;3177;49.880;8.836;2022-09-20T00:31:47;6.37;;;2.57;;
6288;SDS011;3177;49.880;8.836;2022-09-20T00:34:14;5.47;;;2.57;;
6288;SDS011;3177;49.880;8.836;2022-09-20T00:37:00;3.33;;;2.40;;
6288;SDS011;3177;49.880;8.836;2022-09-20T00:39:27;4.83;;;2.97;;
6288;SDS011;3177;49.880;8.836;2022-09-20T00:41:54;4.47;;;2.50;;
6288;SDS011;3177;49.880;8.836;2022-09-20T00:44:40;4.43;;;2.80;;
6288;SDS011;3177;49.880;8.836;2022-09-20T00:47:08;2.87;;;2.23;;
6288;SDS011;3177;49.880;8.836;2022-09-20T00:49:38;2.50;;;2.30;;
6288;SDS011;3177;49.880;8.836;2022-09-20T00:52:07;3.33;;;2.40;;
6288;SDS011;3177;49.880;8.836;2022-09-20T00:54:34;5.03;;;2.70;;
6288;SDS011;3177;49.880;8.836;2022-09-20T00:57:02;6.00;;;2.27;;
6288;SDS011;3177;49.880;8.836;2022-09-20T00:59:29;3.50;;;2.37;;
6288;SDS011;3177;49.880;8.836;2022-09-20T01:01:58;3.40;;;2.50;;
6288;SDS011;3177;49.880;8.836;2022-09-20T01:04:27;4.07;;;2.27;;
6288;SDS011;3177;49.880;8.836;2022-09-20T01:06:55;3.57;;;2.50;;
6288;SDS011;3177;49.880;8.836;2022-09-20T01:09:25;2.77;;;2.57;;
6288;SDS011;3177;49.880;8.836;2022-09-20T01:11:52;4.83;;;2.50;;
6288;SDS011;3177;49.880;8.836;2022-09-20T01:14:20;6.03;;;2.70;;
6288;SDS011;3177;49.880;8.836;2022-09-20T01:16:48;7.57;;;2.97;;
6288;SDS011;3177;49.880;8.836;2022-09-20T01:19:16;4.03;;;2.87;;
6288;SDS011;3177;49.880;8.836;2022-09-20T01:21:45;5.53;;;3.33;;
6288;SDS011;3177;49.880;8.836;2022-09-20T01:24:13;4.77;;;2.60;;
6288;SDS011;3177;49.880;8.836;2022-09-20T01:32:13;3.23;;;2.90;;
6288;SDS011;3177;49.880;8.836;2022-09-20T01:34:43;5.10;;;2.60;;
6288;SDS011;3177;49.880;8.836;2022-09-20T01:37:13;5.57;;;2.27;;
6288;SDS011;3177;49.880;8.836;2022-09-20T01:39:44;5.43;;;2.63;;
6288;SDS011;3177;49.880;8.836;2022-09-20T01:42:13;4.70;;;2.23;;
6288;SDS011;3177;49.880;8.836;2022-09-20T01:44:48;4.97;;;2.57;;
6288;SDS011;3177;49.880;8.836;2022-09-20T01:47:21;3.30;;;2.40;;
6288;SDS011;3177;49.880;8.836;2022-09-20T01:49:51;5.13;;;2.83;;
6288;SDS011;3177;49.880;8.836;2022-09-20T01:52:27;4.03;;;2.50;;
6288;SDS011;3177;49.880;8.836;2022-09-20T01:55:06;4.40;;;2.50;;
6288;SDS011;3177;49.880;8.836;2022-09-20T02:00:31;3.23;;;2.60;;
6288;SDS011;3177;49.880;8.836;2022-09-20T02:03:21;6.70;;;3.10;;
6288;SDS011;3177;49.880;8.836;2022-09-20T02:06:05;5.83;;;2.43;;
6288;SDS011;3177;49.880;8.836;2022-09-20T02:08:37;4.27;;;2.70;;
6288;SDS011;3177;49.880;8.836;2022-09-20T02:11:10;4.60;;;2.80;;
6288;SDS011;3177;49.880;8.836;2022-09-20T02:13:42;7.70;;;3.17;;
6288;SDS011;3177;49.880;8.836;2022-09-20T02:16:20;2.67;;;2.47;;
6288;SDS011;3177;49.880;8.836;2022-09-20T02:18:58;3.23;;;2.97;;
6288;SDS011;3177;49.880;8.836;2022-09-20T02:21:33;3.30;;;3.00;;
6288;SDS011;3177;49.880;8.836;2022-09-20T02:24:05;5.30;;;2.73;;
6288;SDS011;3177;49.880;8.836;2022-09-20T02:26:40;3.53;;;2.70;;
6288;SDS011;3177;49.880;8.836;2022-09-20T02:29:14;8.33;;;3.03;;
6288;SDS011;3177;49.880;8.836;2022-09-20T02:34:44;3.23;;;2.57;;
6288;SDS011;3177;49.880;8.836;2022-09-20T02:37:19;5.60;;;3.10;;
6288;SDS011;3177;49.880;8.836;2022-09-20T02:39:52;3.30;;;3.00;;
6288;SDS011;3177;49.880;8.836;2022-09-20T02:42:24;7.37;;;3.30;;
6288;SDS011;3177;49.880;8.836;2022-09-20T02:44:54;4.73;;;3.03;;
6288;SDS011;3177;49.880;8.836;2022-09-20T02:47:26;5.27;;;2.80;;
6288;SDS011;3177;49.880;8.836;2022-09-20T02:50:03;6.23;;;3.00;;
6288;SDS011;3177;49.880;8.836;2022-09-20T02:52:32;5.63;;;2.77;;
6288;SDS011;3177;49.880;8.836;2022-09-20T02:55:04;3.67;;;3.20;;
6288;SDS011;3177;49.880;8.836;2022-09-20T02:57:35;4.27;;;3.10;;
6288;SDS011;3177;49.880;8.836;2022-09-20T03:00:04;4.53;;;3.00;;
6288;SDS011;3177;49.880;8.836;2022-09-20T03:02:35;3.37;;;2.93;;
6288;SDS011;3177;49.880;8.836;2022-09-20T03:05:10;6.23;;;3.20;;
6288;SDS011;3177;49.880;8.836;2022-09-20T03:07:43;5.17;;;3.43;;
6288;SDS011;3177;49.880;8.836;2022-09-20T03:10:13;5.33;;;3.40;;
6288;SDS011;3177;49.880;8.836;2022-09-20T03:12:46;4.60;;;3.30;;
6288;SDS011;3177;49.880;8.836;2022-09-20T03:15:17;6.80;;;3.30;;
6288;SDS011;3177;49.880;8.836;2022-09-20T03:17:47;4.77;;;3.60;;
6288;SDS011;3177;49.880;8.836;2022-09-20T03:20:21;5.17;;;3.70;;
6288;SDS011;3177;49.880;8.836;2022-09-20T03:22:52;11.00;;;3.70;;
6288;SDS011;3177;49.880;8.836;2022-09-20T03:25:26;12.17;;;3.63;;
6288;SDS011;3177;49.880;8.836;2022-09-20T03:27:58;8.30;;;4.23;;
6288;SDS011;3177;49.880;8.836;2022-09-20T03:30:33;10.90;;;4.47;;
6288;SDS011;3177;49.880;8.836;2022-09-20T03:33:06;8.47;;;3.60;;
6288;SDS011;3177;49.880;8.836;2022-09-20T03:35:45;6.73;;;3.53;;
6288;SDS011;3177;49.880;8.836;2022-09-20T03:38:17;9.77;;;3.87;;
6288;SDS011;3177;49.880;8.836;2022-09-20T03:41:01;5.57;;;3.80;;
6288;SDS011;3177;49.880;8.836;2022-09-20T03:43:34;6.90;;;4.03;;
6288;SDS011;3177;49.880;8.836;2022-09-20T03:46:07;4.87;;;3.40;;
6288;SDS011;3177;49.880;8.836;2022-09-20T03:48:49;8.23;;;3.80;;
6288;SDS011;3177;49.880;8.836;2022-09-20T03:51:21;5.97;;;3.40;;
6288;SDS011;3177;49.880;8.836;2022-09-20T03:56:54;8.93;;;4.17;;
6288;SDS011;3177;49.880;8.836;2022-09-20T04:02:15;4.03;;;3.30;;
6288;SDS011;3177;49.880;8.836;2022-09-20T04:04:47;4.63;;;3.53;;
6288;SDS011;3177;49.880;8.836;2022-09-20T04:07:18;7.17;;;3.50;;
6288;SDS011;3177;49.880;8.836;2022-09-20T04:09:55;6.17;;;3.23;;
6288;SDS011;3177;49.880;8.836;2022-09-20T04:12:25;5.07;;;3.00;;
6288;SDS011;3177;49.880;8.836;2022-09-20T04:14:56;4.30;;;3.10;;
6288;SDS011;3177;49.880;8.836;2022-09-20T04:17:31;5.37;;;3.33;;
6288;SDS011;3177;49.880;8.836;2022-09-20T04:20:06;8.00;;;3.10;;
6288;SDS011;3177;49.880;8.836;2022-09-20T04:22:40;3.80;;;3.50;;
6288;SDS011;3177;49.880;8.836;2022-09-20T04:25:11;5.30;;;3.50;;
6288;SDS011;3177;49.880;8.836;2022-09-20T04:27:40;4.07;;;3.10;;
6288;SDS011;3177;49.880;8.836;2022-09-20T04:30:17;5.00;;;3.40;;
6288;SDS011;3177;49.880;8.836;2022-09-20T04:32:46;5.00;;;3.70;;
6288;SDS011;3177;49.880;8.836;2022-09-20T04:35:17;3.90;;;3.60;;
6288;SDS011;3177;49.880;8.836;2022-09-20T04:38:08;11.03;;;3.60;;
6288;SDS011;3177;49.880;8.836;2022-09-20T04:40:41;5.80;;;3.53;;
6288;SDS011;3177;49.880;8.836;2022-09-20T04:48:57;6.53;;;3.67;;
6288;SDS011;3177;49.880;8.836;2022-09-20T04:57:15;5.73;;;4.30;;
6288;SDS011;3177;49.880;8.836;2022-09-20T04:59:53;7.60;;;4.63;;
6288;SDS011;3177;49.880;8.836;2022-09-20T05:05:20;7.97;;;5.20;;
6288;SDS011;3177;49.880;8.836;2022-09-20T05:08:00;8.90;;;4.90;;
6288;SDS011;3177;49.880;8.836;2022-09-20T05:10:37;9.43;;;4.90;;
6288;SDS011;3177;49.880;8.836;2022-09-20T05:13:16;6.80;;;4.30;;
6288;SDS011;3177;49.880;8.836;2022-09-20T05:15:50;8.87;;;5.00;;
6288;SDS011;3177;49.880;8.836;2022-09-20T05:21:11;8.10;;;4.67;;
6288;SDS011;3177;49.880;8.836;2022-09-20T05:23:42;7.80;;;4.37;;
6288;SDS011;3177;49.880;8.836;2022-09-20T05:26:13;5.00;;;4.50;;
6288;SDS011;3177;49.880;8.836;2022-09-20T05:28:53;6.70;;;4.63;;
6288;SDS011;3177;49.880;8.836;2022-09-20T05:31:24;8.10;;;5.03;;
6288;SDS011;3177;49.880;8.836;2022-09-20T05:33:56;6.07;;;4.53;;
6288;SDS011;3177;49.880;8.836;2022-09-20T05:36:28;7.90;;;4.83;;
6288;SDS011;3177;49.880;8.836;2022-09-20T05:38:59;11.70;;;5.27;;
6288;SDS011;3177;49.880;8.836;2022-09-20T05:41:29;7.73;;;5.10;;
6288;SDS011;3177;49.880;8.836;2022-09-20T05:44:03;11.00;;;5.63;;
6288;SDS011;3177;49.880;8.836;2022-09-20T05:46:33;8.60;;;5.60;;
6288;SDS011;3177;49.880;8.836;2022-09-20T05:49:06;9.77;;;5.37;;
6288;SDS011;3177;49.880;8.836;2022-09-20T05:51:41;10.33;;;5.90;;
6288;SDS011;3177;49.880;8.836;2022-09-20T05:56:54;10.17;;;6.70;;
6288;SDS011;3177;49.880;8.836;2022-09-20T05:59:33;10.23;;;6.93;;
6288;SDS011;3177;49.880;8.836;2022-09-20T06:02:17;9.53;;;6.20;;
6288;SDS011;3177;49.880;8.836;2022-09-20T06:04:48;15.17;;;6.40;;
6288;SDS011;3177;49.880;8.836;2022-09-20T06:07:24;11.90;;;6.83;;
6288;SDS011;3177;49.880;8.836;2022-09-20T06:10:11;10.73;;;6.63;;
6288;SDS011;3177;49.880;8.836;2022-09-20T06:12:42;13.63;;;7.40;;
6288;SDS011;3177;49.880;8.836;2022-09-20T06:15:19;12.37;;;7.47;;
6288;SDS011;3177;49.880;8.836;2022-09-20T06:17:49;15.43;;;8.77;;
6288;SDS011;3177;49.880;8.836;2022-09-20T06:20:23;15.47;;;8.17;;
6288;SDS011;3177;49.880;8.836;2022-09-20T06:22:52;17.93;;;9.33;;
6288;SDS011;3177;49.880;8.836;2022-09-20T06:25:21;16.87;;;10.07;;
6288;SDS011;3177;49.880;8.836;2022-09-20T06:27:50;16.00;;;9.70;;
6288;SDS011;3177;49.880;8.836;2022-09-20T06:30:19;18.53;;;9.00;;
6288;SDS011;3177;49.880;8.836;2022-09-20T06:32:51;18.23;;;8.97;;
6288;SDS011;3177;49.880;8.836;2022-09-20T06:35:19;14.93;;;8.17;;
6288;SDS011;3177;49.880;8.836;2022-09-20T06:37:48;17.43;;;9.20;;
6288;SDS011;3177;49.880;8.836;2022-09-20T06:40:36;20.73;;;9.73;;
6288;SDS011;3177;49.880;8.836;2022-09-20T06:43:22;13.73;;;9.43;;
6288;SDS011;3177;49.880;8.836;2022-09-20T06:45:51;14.60;;;8.23;;
6288;SDS011;3177;49.880;8.836;2022-09-20T06:48:18;17.43;;;8.87;;
6288;SDS011;3177;49.880;8.836;2022-09-20T06:50:45;18.57;;;9.20;;
6288;SDS011;3177;49.880;8.836;2022-09-20T06:53:13;16.63;;;8.90;;
6288;SDS011;3177;49.880;8.836;2022-09-20T06:55:41;16.73;;;8.30;;
6288;SDS011;3177;49.880;8.836;2022-09-20T06:58:09;14.80;;;7.93;;
6288;SDS011;3177;49.880;8.836;2022-09-20T07:00:36;17.90;;;8.27;;
6288;SDS011;3177;49.880;8.836;2022-09-20T07:03:06;16.13;;;8.33;;
6288;SDS011;3177;49.880;8.836;2022-09-20T07:05:33;19.83;;;8.33;;
6288;SDS011;3177;49.880;8.836;2022-09-20T07:08:03;12.70;;;7.87;;
6288;SDS011;3177;49.880;8.836;2022-09-20T07:10:30;16.23;;;7.97;;
6288;SDS011;3177;49.880;8.836;2022-09-20T07:12:57;14.27;;;7.53;;
6288;SDS011;3177;49.880;8.836;2022-09-20T07:15:25;15.40;;;8.27;;
6288;SDS011;3177;49.880;8.836;2022-09-20T07:17:53;10.97;;;7.57;;
6288;SDS011;3177;49.880;8.836;2022-09-20T07:20:21;18.13;;;8.57;;
6288;SDS011;3177;49.880;8.836;2022-09-20T07:22:49;17.87;;;7.20;;
6288;SDS011;3177;49.880;8.836;2022-09-20T07:25:16;14.57;;;7.40;;
6288;SDS011;3177;49.880;8.836;2022-09-20T07:27:43;13.03;;;7.13;;
6288;SDS011;3177;49.880;8.836;2022-09-20T07:30:11;12.47;;;8.23;;
6288;SDS011;3177;49.880;8.836;2022-09-20T07:32:39;10.80;;;7.30;;
6288;SDS011;3177;49.880;8.836;2022-09-20T07:35:06;12.23;;;7.93;;
6288;SDS011;3177;49.880;8.836;2022-09-20T07:37:35;12.47;;;7.73;;
6288;SDS011;3177;49.880;8.836;2022-09-20T07:40:05;14.60;;;7.17;;
6288;SDS011;3177;49.880;8.836;2022-09-20T07:42:33;13.33;;;6.97;;
6288;SDS011;3177;49.880;8.836;2022-09-20T07:45:00;14.93;;;8.07;;
6288;SDS011;3177;49.880;8.836;2022-09-20T07:47:27;13.73;;;8.13;;
6288;SDS011;3177;49.880;8.836;2022-09-20T07:49:56;10.83;;;6.80;;
6288;SDS011;3177;49.880;8.836;2022-09-20T07:52:23;12.60;;;6.80;;
6288;SDS011;3177;49.880;8.836;2022-09-20T07:54:51;12.00;;;6.10;;
6288;SDS011;3177;49.880;8.836;2022-09-20T07:57:18;9.77;;;6.00;;
6288;SDS011;3177;49.880;8.836;2022-09-20T07:59:45;9.03;;;6.37;;
6288;SDS011;3177;49.880;8.836;2022-09-20T08:02:12;14.17;;;6.37;;
6288;SDS011;3177;49.880;8.836;2022-09-20T08:04:40;9.90;;;5.53;;
6288;SDS011;3177;49.880;8.836;2022-09-20T08:07:07;8.47;;;5.07;;
6288;SDS011;3177;49.880;8.836;2022-09-20T08:09:34;8.20;;;5.60;;
6288;SDS011;3177;49.880;8.836;2022-09-20T08:12:03;9.50;;;5.20;;
6288;SDS011;3177;49.880;8.836;2022-09-20T08:14:32;8.43;;;5.17;;
6288;SDS011;3177;49.880;8.836;2022-09-20T08:17:00;13.50;;;5.77;;
6288;SDS011;3177;49.880;8.836;2022-09-20T08:19:27;10.97;;;6.10;;
6288;SDS011;3177;49.880;8.836;2022-09-20T08:21:54;13.60;;;5.60;;
6288;SDS011;3177;49.880;8.836;2022-09-20T08:24:21;9.80;;;5.50;;
6288;SDS011;3177;49.880;8.836;2022-09-20T08:26:50;10.73;;;5.77;;
6288;SDS011;3177;49.880;8.836;2022-09-20T08:29:19;10.13;;;5.27;;
6288;SDS011;3177;49.880;8.836;2022-09-20T08:31:46;8.70;;;5.50;;
6288;SDS011;3177;49.880;8.836;2022-09-20T08:34:13;9.23;;;5.40;;
6288;SDS011;3177;49.880;8.836;2022-09-20T08:36:41;9.83;;;5.40;;
6288;SDS011;3177;49.880;8.836;2022-09-20T08:39:10;8.57;;;4.60;;
6288;SDS011;3177;49.880;8.836;2022-09-20T08:41:39;10.17;;;5.50;;
6288;SDS011;3177;49.880;8.836;2022-09-20T08:44:10;12.63;;;5.47;;
6288;SDS011;3177;49.880;8.836;2022-09-20T08:46:40;11.13;;;5.73;;
6288;SDS011;3177;49.880;8.836;2022-09-20T08:49:08;7.53;;;5.10;;
6288;SDS011;3177;49.880;8.836;2022-09-20T08:51:39;9.60;;;5.40;;
6288;SDS011;3177;49.880;8.836;2022-09-20T08:54:08;8.70;;;5.20;;
6288;SDS011;3177;49.880;8.836;2022-09-20T08:56:38;8.67;;;4.90;;
6288;SDS011;3177;49.880;8.836;2022-09-20T08:59:07;8.40;;;5.03;;
6288;SDS011;3177;49.880;8.836;2022-09-20T09:01:36;7.27;;;4.87;;
6288;SDS011;3177;49.880;8.836;2022-09-20T09:04:12;8.63;;;4.30;;
6288;SDS011;3177;49.880;8.836;2022-09-20T09:06:40;12.70;;;5.00;;
6288;SDS011;3177;49.880;8.836;2022-09-20T09:09:09;11.40;;;4.30;;
6288;SDS011;3177;49.880;8.836;2022-09-20T09:11:40;6.47;;;4.10;;
6288;SDS011;3177;49.880;8.836;2022-09-20T09:14:10;6.97;;;3.83;;
6288;SDS011;3177;49.880;8.836;2022-09-20T09:16:51;9.70;;;3.87;;
6288;SDS011;3177;49.880;8.836;2022-09-20T09:19:27;6.00;;;3.40;;
6288;SDS011;3177;49.880;8.836;2022-09-20T09:21:55;7.23;;;3.80;;
6288;SDS011;3177;49.880;8.836;2022-09-20T09:24:23;8.80;;;3.63;;
6288;SDS011;3177;49.880;8.836;2022-09-20T09:26:50;8.60;;;3.70;;
6288;SDS011;3177;49.880;8.836;2022-09-20T09:29:30;5.60;;;3.73;;
6288;SDS011;3177;49.880;8.836;2022-09-20T09:31:57;8.20;;;4.20;;
6288;SDS011;3177;49.880;8.836;2022-09-20T09:34:50;3.77;;;2.83;;
6288;SDS011;3177;49.880;8.836;2022-09-20T09:37:23;6.20;;;3.37;;
6288;SDS011;3177;49.880;8.836;2022-09-20T09:40:05;6.33;;;3.03;;
6288;SDS011;3177;49.880;8.836;2022-09-20T09:42:33;9.70;;;3.33;;
6288;SDS011;3177;49.880;8.836;2022-09-20T09:45:09;5.80;;;2.93;;
6288;SDS011;3177;49.880;8.836;2022-09-20T09:47:37;3.90;;;3.00;;
6288;SDS011;3177;49.880;8.836;2022-09-20T09:50:11;7.50;;;3.30;;
6288;SDS011;3177;49.880;8.836;2022-09-20T09:52:55;7.13;;;2.90;;
6288;SDS011;3177;49.880;8.836;2022-09-20T09:55:23;5.90;;;2.87;;
6288;SDS011;3177;49.880;8.836;2022-09-20T09:57:52;4.97;;;3.10;;
6288;SDS011;3177;49.880;8.836;2022-09-20T10:00:24;4.97;;;2.97;;
6288;SDS011;3177;49.880;8.836;2022-09-20T10:03:04;7.67;;;2.90;;
6288;SDS011;3177;49.880;8.836;2022-09-20T10:05:38;9.27;;;3.10;;
6288;SDS011;3177;49.880;8.836;2022-09-20T10:08:11;4.93;;;2.60;;
6288;SDS011;3177;49.880;8.836;2022-09-20T10:10:46;5.27;;;2.30;;
6288;SDS011;3177;49.880;8.836;2022-09-20T10:13:17;3.67;;;2.33;;
6288;SDS011;3177;49.880;8.836;2022-09-20T10:15:49;4.50;;;2.30;;
6288;SDS011;3177;49.880;8.836;2022-09-20T10:18:26;3.13;;;2.20;;
6288;SDS011;3177;49.880;8.836;2022-09-20T10:21:02;5.17;;;2.00;;
6288;SDS011;3177;49.880;8.836;2022-09-20T10:23:36;4.80;;;2.23;;
6288;SDS011;3177;49.880;8.836;2022-09-20T10:26:06;5.37;;;2.13;;
6288;SDS011;3177;49.880;8.836;2022-09-20T10:28:40;6.80;;;2.27;;
6288;SDS011;3177;49.880;8.836;2022-09-20T10:31:17;5.43;;;2.37;;
6288;SDS011;3177;49.880;8.836;2022-09-20T10:33:48;5.97;;;2.50;;
6288;SDS011;3177;49.880;8.836;2022-09-20T10:36:20;3.43;;;2.10;;
6288;SDS011;3177;49.880;8.836;2022-09-20T10:38:52;4.37;;;2.23;;
6288;SDS011;3177;49.880;8.836;2022-09-20T10:41:27;4.30;;;2.10;;
6288;SDS011;3177;49.880;8.836;2022-09-20T10:44:23;4.60;;;2.10;;
6288;SDS011;3177;49.880;8.836;2022-09-20T10:46:56;4.90;;;2.17;;
6288;SDS011;3177;49.880;8.836;2022-09-20T10:49:26;7.90;;;2.60;;
6288;SDS011;3177;49.880;8.836;2022-09-20T10:51:58;3.27;;;1.50;;
6288;SDS011;3177;49.880;8.836;2022-09-20T10:54:33;3.67;;;1.80;;
6288;SDS011;3177;49.880;8.836;2022-09-20T10:57:07;3.42;;;1.50;;
6288;SDS011;3177;49.880;8.836;2022-09-20T10:59:39;2.73;;;1.70;;
6288;SDS011;3177;49.880;8.836;2022-09-20T11:02:13;2.70;;;1.77;;
6288;SDS011;3177;49.880;8.836;2022-09-20T11:07:35;2.97;;;1.83;;
6288;SDS011;3177;49.880;8.836;2022-09-20T11:10:12;3.33;;;1.60;;
6288;SDS011;3177;49.880;8.836;2022-09-20T11:12:41;5.70;;;1.88;;
6288;SDS011;3177;49.880;8.836;2022-09-20T11:15:12;5.97;;;1.88;;
6288;SDS011;3177;49.880;8.836;2022-09-20T11:17:41;4.47;;;1.90;;
6288;SDS011;3177;49.880;8.836;2022-09-20T11:20:14;6.18;;;2.10;;
6288;SDS011;3177;49.880;8.836;2022-09-20T11:22:45;3.20;;;1.95;;
6288;SDS011;3177;49.880;8.836;2022-09-20T11:25:14;4.53;;;1.83;;
6288;SDS011;3177;49.880;8.836;2022-09-20T11:27:43;9.20;;;1.98;;
6288;SDS011;3177;49.880;8.836;2022-09-20T11:30:13;5.18;;;1.58;;
6288;SDS011;3177;49.880;8.836;2022-09-20T11:32:42;2.95;;;1.77;;
6288;SDS011;3177;49.880;8.836;2022-09-20T11:35:17;2.33;;;1.70;;
6288;SDS011;3177;49.880;8.836;2022-09-20T11:37:48;3.40;;;1.85;;
6288;SDS011;3177;49.880;8.836;2022-09-20T11:40:19;9.43;;;2.33;;
6288;SDS011;3177;49.880;8.836;2022-09-20T11:45:18;3.45;;;2.22;;
6288;SDS011;3177;49.880;8.836;2022-09-20T11:47:47;3.20;;;1.52;;
6288;SDS011;3177;49.880;8.836;2022-09-20T11:50:26;2.67;;;1.73;;
6288;SDS011;3177;49.880;8.836;2022-09-20T11:53:04;2.65;;;1.80;;
6288;SDS011;3177;49.880;8.836;2022-09-20T11:55:38;6.38;;;2.13;;
6288;SDS011;3177;49.880;8.836;2022-09-20T11:58:08;6.00;;;1.77;;
6288;SDS011;3177;49.880;8.836;2022-09-20T12:00:36;3.83;;;2.03;;
6288;SDS011;3177;49.880;8.836;2022-09-20T12:03:06;5.07;;;1.40;;
6288;SDS011;3177;49.880;8.836;2022-09-20T12:05:37;2.38;;;1.50;;
6288;SDS011;3177;49.880;8.836;2022-09-20T12:08:07;1.85;;;1.60;;
6288;SDS011;3177;49.880;8.836;2022-09-20T12:10:44;3.97;;;2.15;;
6288;SDS011;3177;49.880;8.836;2022-09-20T12:13:23;4.32;;;2.20;;
6288;SDS011;3177;49.880;8.836;2022-09-20T12:15:55;3.28;;;1.77;;
6288;SDS011;3177;49.880;8.836;2022-09-20T12:18:34;5.80;;;2.28;;
6288;SDS011;3177;49.880;8.836;2022-09-20T12:21:03;2.72;;;1.70;;
6288;SDS011;3177;49.880;8.836;2022-09-20T12:29:03;3.90;;;2.13;;
6288;SDS011;3177;49.880;8.836;2022-09-20T12:31:36;3.92;;;1.90;;
6288;SDS011;3177;49.880;8.836;2022-09-20T12:34:27;3.65;;;2.03;;
6288;SDS011;3177;49.880;8.836;2022-09-20T12:37:17;1.60;;;1.50;;
6288;SDS011;3177;49.880;8.836;2022-09-20T12:39:51;6.10;;;2.88;;
6288;SDS011;3177;49.880;8.836;2022-09-20T12:42:26;4.63;;;2.40;;
6288;SDS011;3177;49.880;8.836;2022-09-20T12:44:59;2.92;;;1.88;;
6288;SDS011;3177;49.880;8.836;2022-09-20T12:47:27;5.75;;;2.40;;
6288;SDS011;3177;49.880;8.836;2022-09-20T12:49:57;3.45;;;1.85;;
6288;SDS011;3177;49.880;8.836;2022-09-20T12:52:52;5.28;;;2.35;;
6288;SDS011;3177;49.880;8.836;2022-09-20T12:55:27;6.68;;;2.25;;
6288;SDS011;3177;49.880;8.836;2022-09-20T12:57:56;4.20;;;2.10;;
6288;SDS011;3177;49.880;8.836;2022-09-20T13:00:35;4.38;;;2.53;;
6288;SDS011;3177;49.880;8.836;2022-09-20T13:03:25;7.93;;;2.08;;
6288;SDS011;3177;49.880;8.836;2022-09-20T13:08:38;4.32;;;2.25;;
6288;SDS011;3177;49.880;8.836;2022-09-20T13:11:08;2.92;;;2.10;;
6288;SDS011;3177;49.880;8.836;2022-09-20T13:13:38;2.25;;;1.70;;
6288;SDS011;3177;49.880;8.836;2022-09-20T13:16:12;4.72;;;1.95;;
6288;SDS011;3177;49.880;8.836;2022-09-20T13:18:44;3.72;;;1.98;;
6288;SDS011;3177;49.880;8.836;2022-09-20T13:21:12;3.50;;;2.00;;
6288;SDS011;3177;49.880;8.836;2022-09-20T13:23:44;4.28;;;1.65;;
6288;SDS011;3177;49.880;8.836;2022-09-20T13:26:11;2.70;;;2.10;;
6288;SDS011;3177;49.880;8.836;2022-09-20T13:28:42;3.75;;;2.00;;
6288;SDS011;3177;49.880;8.836;2022-09-20T13:31:30;3.55;;;2.00;;
6288;SDS011;3177;49.880;8.836;2022-09-20T13:34:13;2.00;;;1.70;;
6288;SDS011;3177;49.880;8.836;2022-09-20T13:36:49;5.30;;;2.05;;
6288;SDS011;3177;49.880;8.836;2022-09-20T13:42:06;3.10;;;1.95;;
6288;SDS011;3177;49.880;8.836;2022-09-20T13:44:35;2.63;;;1.70;;
6288;SDS011;3177;49.880;8.836;2022-09-20T13:47:18;2.85;;;1.80;;
6288;SDS011;3177;49.880;8.836;2022-09-20T13:49:47;4.45;;;2.05;;
6288;SDS011;3177;49.880;8.836;2022-09-20T13:52:19;4.97;;;1.70;;
6288;SDS011;3177;49.880;8.836;2022-09-20T13:54:47;3.42;;;1.88;;
6288;SDS011;3177;49.880;8.836;2022-09-20T13:57:16;4.45;;;2.00;;
6288;SDS011;3177;49.880;8.836;2022-09-20T13:59:45;3.83;;;2.00;;
6288;SDS011;3177;49.880;8.836;2022-09-20T14:02:17;3.63;;;2.10;;
6288;SDS011;3177;49.880;8.836;2022-09-20T14:04:46;4.03;;;1.98;;
6288;SDS011;3177;49.880;8.836;2022-09-20T14:07:14;3.53;;;2.13;;
6288;SDS011;3177;49.880;8.836;2022-09-20T14:09:42;2.70;;;1.93;;
6288;SDS011;3177;49.880;8.836;2022-09-20T14:12:10;1.93;;;1.73;;
6288;SDS011;3177;49.880;8.836;2022-09-20T14:14:38;5.77;;;2.20;;
6288;SDS011;3177;49.880;8.836;2022-09-20T14:17:06;4.80;;;2.20;;
6288;SDS011;3177;49.880;8.836;2022-09-20T14:19:37;4.53;;;2.57;;
6288;SDS011;3177;49.880;8.836;2022-09-20T14:22:06;4.47;;;2.80;;
6288;SDS011;3177;49.880;8.836;2022-09-20T14:24:34;4.17;;;2.60;;
6288;SDS011;3177;49.880;8.836;2022-09-20T14:27:11;7.67;;;2.23;;
6288;SDS011;3177;49.880;8.836;2022-09-20T14:29:40;4.00;;;2.47;;
6288;SDS011;3177;49.880;8.836;2022-09-20T14:32:09;4.30;;;2.73;;
6288;SDS011;3177;49.880;8.836;2022-09-20T14:34:39;3.33;;;2.47;;
6288;SDS011;3177;49.880;8.836;2022-09-20T14:37:08;3.93;;;2.17;;
6288;SDS011;3177;49.880;8.836;2022-09-20T14:39:43;2.33;;;2.10;;
6288;SDS011;3177;49.880;8.836;2022-09-20T14:42:15;5.83;;;2.47;;
6288;SDS011;3177;49.880;8.836;2022-09-20T14:44:43;4.17;;;2.20;;
6288;SDS011;3177;49.880;8.836;2022-09-20T14:47:12;5.83;;;2.90;;
6288;SDS011;3177;49.880;8.836;2022-09-20T14:49:41;5.43;;;2.50;;
6288;SDS011;3177;49.880;8.836;2022-09-20T14:54:56;4.73;;;2.50;;
6288;SDS011;3177;49.880;8.836;2022-09-20T14:57:24;3.20;;;2.33;;
6288;SDS011;3177;49.880;8.836;2022-09-20T14:59:56;5.53;;;3.70;;
6288;SDS011;3177;49.880;8.836;2022-09-20T15:02:23;4.33;;;2.40;;
6288;SDS011;3177;49.880;8.836;2022-09-20T15:04:52;7.47;;;2.30;;
6288;SDS011;3177;49.880;8.836;2022-09-20T15:07:20;4.30;;;2.50;;
6288;SDS011;3177;49.880;8.836;2022-09-20T15:09:47;3.67;;;2.40;;
6288;SDS011;3177;49.880;8.836;2022-09-20T15:12:16;3.80;;;2.87;;
6288;SDS011;3177;49.880;8.836;2022-09-20T15:14:44;3.60;;;2.30;;
6288;SDS011;3177;49.880;8.836;2022-09-20T15:17:12;4.23;;;2.13;;
6288;SDS011;3177;49.880;8.836;2022-09-20T15:19:40;2.83;;;2.37;;
6288;SDS011;3177;49.880;8.836;2022-09-20T15:22:09;2.83;;;2.43;;
6288;SDS011;3177;49.880;8.836;2022-09-20T15:24:36;6.10;;;2.43;;
6288;SDS011;3177;49.880;8.836;2022-09-20T15:27:03;2.80;;;2.40;;
6288;SDS011;3177;49.880;8.836;2022-09-20T15:29:30;3.60;;;2.40;;
6288;SDS011;3177;49.880;8.836;2022-09-20T15:31:57;7.40;;;2.50;;
6288;SDS011;3177;49.880;8.836;2022-09-20T15:34:25;3.23;;;2.53;;
6288;SDS011;3177;49.880;8.836;2022-09-20T15:36:52;4.37;;;2.53;;
6288;SDS011;3177;49.880;8.836;2022-09-20T15:39:20;5.00;;;2.60;;
6288;SDS011;3177;49.880;8.836;2022-09-20T15:41:50;3.43;;;2.13;;
6288;SDS011;3177;49.880;8.836;2022-09-20T15:44:17;6.57;;;2.60;;
6288;SDS011;3177;49.880;8.836;2022-09-20T15:46:44;4.50;;;2.80;;
6288;SDS011;3177;49.880;8.836;2022-09-20T15:49:12;4.43;;;2.60;;
6288;SDS011;3177;49.880;8.836;2022-09-20T15:51:40;5.43;;;2.70;;
6288;SDS011;3177;49.880;8.836;2022-09-20T15:54:09;6.93;;;2.30;;
6288;SDS011;3177;49.880;8.836;2022-09-20T15:56:39;4.67;;;2.60;;
6288;SDS011;3177;49.880;8.836;2022-09-20T15:59:07;3.63;;;2.67;;
6288;SDS011;3177;49.880;8.836;2022-09-20T16:01:35;5.87;;;2.80;;
6288;SDS011;3177;49.880;8.836;2022-09-20T16:04:04;5.97;;;2.97;;
6288;SDS011;3177;49.880;8.836;2022-09-20T16:06:31;5.57;;;3.37;;
6288;SDS011;3177;49.880;8.836;2022-09-20T16:08:59;3.90;;;3.13;;
6288;SDS011;3177;49.880;8.836;2022-09-20T16:11:27;7.53;;;3.30;;
6288;SDS011;3177;49.880;8.836;2022-09-20T16:13:56;5.37;;;2.80;;
6288;SDS011;3177;49.880;8.836;2022-09-20T16:16:24;6.50;;;2.53;;
6288;SDS011;3177;49.880;8.836;2022-09-20T16:18:51;4.50;;;2.77;;
6288;SDS011;3177;49.880;8.836;2022-09-20T16:21:36;3.07;;;2.30;;
6288;SDS011;3177;49.880;8.836;2022-09-20T16:24:04;8.90;;;2.40;;
6288;SDS011;3177;49.880;8.836;2022-09-20T16:26:31;4.20;;;2.60;;
6288;SDS011;3177;49.880;8.836;2022-09-20T16:29:00;4.23;;;2.50;;
6288;SDS011;3177;49.880;8.836;2022-09-20T16:31:33;2.40;;;2.20;;
6288;SDS011;3177;49.880;8.836;2022-09-20T16:34:01;5.50;;;2.60;;
6288;SDS011;3177;49.880;8.836;2022-09-20T16:36:29;4.37;;;3.00;;